Time;durP1;ratioP1;P1;durP2;ratioP2;P2;SDS_P1;SDS_P2;PMS_P1;PMS_P2;Temp;Humidity;BMP_temperature;BMP_pressure;BME280_temperature;BME280_humidity;BME280_pressure;Samples;Min_cycle;Max_cycle;Signal;HPM_P1;HPM_P2
2022/10/03 00:00:17;;;;;;;1.65;0.80;;;16.40;83.70;;;;;;5047078;28;20020;-77
2022/10/03 00:03:07;;;;;;;3.00;1.08;;;16.40;83.70;;;;;;5065156;28;20025;-77
2022/10/03 00:05:51;;;;;;;2.85;0.90;;;16.40;83.80;;;;;;5047225;28;20217;-76
2022/10/03 00:08:26;;;;;;;2.03;0.95;;;16.50;83.90;;;;;;5065282;28;20028;-76
2022/10/03 00:11:18;;;;;;;3.55;1.13;;;16.40;83.90;;;;;;5064670;28;20021;-77
2022/10/03 00:13:56;;;;;;;3.17;1.00;;;16.40;83.90;;;;;;5047075;28;20031;-76
2022/10/03 00:17:12;;;;;;;2.67;1.20;;;16.40;83.70;;;;;;5065157;28;20506;-76
2022/10/03 00:19:37;;;;;;;2.28;0.80;;;16.40;83.60;;;;;;4963902;28;20043;-77
2022/10/03 00:22:27;;;;;;;4.00;0.88;;;16.50;83.60;;;;;;4963737;28;20066;-76
2022/10/03 00:25:11;;;;;;;3.60;1.00;;;16.60;83.60;;;;;;5017132;28;20131;-76
2022/10/03 00:27:42;;;;;;;2.03;1.00;;;16.50;83.50;;;;;;5047100;28;20032;-76
2022/10/03 00:30:14;;;;;;;;;;;16.50;83.30;;;;;;5065780;28;20086;-76
2022/10/03 00:33:17;;;;;;;2.88;0.98;;;16.50;83.20;;;;;;5046743;28;19908;-77
2022/10/03 00:35:58;;;;;;;2.33;0.85;;;16.50;83.30;;;;;;5047330;28;20024;-77
2022/10/03 00:39:01;;;;;;;2.75;0.70;;;16.50;83.50;;;;;;5064655;28;20024;-77
2022/10/03 00:42:12;;;;;;;2.40;0.90;;;16.50;84.10;;;;;;5050688;28;20032;-77
2022/10/03 00:45:02;;;;;;;2.15;0.88;;;16.50;83.70;;;;;;5068918;28;20032;-77
2022/10/03 00:47:49;;;;;;;3.00;0.80;;;16.40;83.60;;;;;;5056207;28;20710;-76
2022/10/03 00:50:26;;;;;;;2.40;0.80;;;16.50;83.70;;;;;;5048034;28;20047;-76
2022/10/03 00:53:09;;;;;;;2.30;0.93;;;16.40;83.70;;;;;;5046878;28;20031;-79
2022/10/03 00:55:47;;;;;;;4.10;1.00;;;16.40;83.80;;;;;;5048253;28;20505;-76
2022/10/03 00:58:42;;;;;;;3.20;0.95;;;16.40;83.80;;;;;;5030125;28;20025;-76
2022/10/03 01:01:44;;;;;;;3.30;0.82;;;16.40;83.70;;;;;;5048173;28;20025;-76
2022/10/03 01:04:59;;;;;;;2.90;0.93;;;16.40;83.80;;;;;;5006283;28;20038;-76
2022/10/03 01:07:48;;;;;;;3.00;1.02;;;16.40;83.90;;;;;;5003849;28;20080;-76
2022/10/03 01:10:21;;;;;;;3.70;0.98;;;16.40;83.80;;;;;;5048390;28;20029;-76
2022/10/03 01:13:07;;;;;;;4.30;1.00;;;16.40;83.90;;;;;;5030062;28;20083;-77
2022/10/03 01:15:48;;;;;;;2.72;0.80;;;16.40;83.90;;;;;;5030564;28;20075;-76
2022/10/03 01:18:26;;;;;;;;;;;16.40;83.90;;;;;;5030705;28;20430;-76
2022/10/03 01:21:13;;;;;;;2.20;0.80;;;16.40;83.70;;;;;;5048376;28;19908;-76
2022/10/03 01:24:11;;;;;;;2.75;1.00;;;16.40;83.70;;;;;;5030024;28;20029;-76
2022/10/03 01:27:01;;;;;;;2.50;0.98;;;16.40;83.60;;;;;;5029940;28;20028;-76
2022/10/03 01:33:05;;;;;;;2.67;0.90;;;16.50;83.50;;;;;;5048205;28;20572;-76
2022/10/03 01:35:55;;;;;;;4.82;0.90;;;16.50;83.40;;;;;;5030205;28;20043;-76
2022/10/03 01:38:24;;;;;;;4.32;1.10;;;16.50;83.30;;;;;;5048057;28;20493;-77
2022/10/03 01:40:59;;;;;;;2.83;1.05;;;16.50;83.40;;;;;;5034131;28;20035;-76
2022/10/03 01:43:45;;;;;;;2.40;0.95;;;16.50;83.60;;;;;;5067815;28;20032;-76
2022/10/03 01:46:18;;;;;;;2.85;0.80;;;16.50;83.80;;;;;;5067327;28;20041;-76
2022/10/03 01:49:18;;;;;;;3.70;1.10;;;16.40;83.70;;;;;;5049722;28;20032;-76
2022/10/03 01:52:12;;;;;;;2.75;0.93;;;16.50;83.70;;;;;;5048473;28;20078;-77
2022/10/03 01:55:05;;;;;;;2.70;0.93;;;16.40;83.80;;;;;;5049367;28;20098;-76
2022/10/03 01:57:59;;;;;;;1.95;0.80;;;16.40;83.90;;;;;;5049087;28;20214;-76
2022/10/03 02:00:33;;;;;;;2.33;1.00;;;16.40;83.80;;;;;;5067311;28;20025;-76
2022/10/03 02:02:58;;;;;;;2.80;1.10;;;16.40;83.80;;;;;;5067018;28;20031;-76
2022/10/03 02:05:37;;;;;;;1.55;0.80;;;16.40;84.00;;;;;;5066955;28;20032;-79
2022/10/03 02:08:28;;;;;;;1.80;0.80;;;16.40;83.90;;;;;;5067005;28;20017;-76
2022/10/03 02:11:01;;;;;;;3.42;1.00;;;16.40;83.90;;;;;;5048938;28;20512;-75
2022/10/03 02:13:50;;;;;;;2.70;1.02;;;16.40;84.00;;;;;;5049557;28;20064;-76
2022/10/03 02:16:40;;;;;;;3.63;1.00;;;16.40;84.00;;;;;;5049119;28;20031;-76
2022/10/03 02:19:29;;;;;;;1.90;0.80;;;16.40;84.00;;;;;;5049014;28;20402;-77
2022/10/03 02:21:57;;;;;;;3.30;1.05;;;16.40;84.00;;;;;;5048547;28;20444;-76
2022/10/03 02:24:28;;;;;;;3.58;1.00;;;16.40;83.90;;;;;;5066879;28;20050;-76
2022/10/03 02:27:12;;;;;;;3.47;0.87;;;16.40;83.80;;;;;;5067112;28;20024;-76
2022/10/03 02:29:43;;;;;;;2.28;0.80;;;16.40;83.80;;;;;;5048926;28;20404;-79
2022/10/03 02:32:49;;;;;;;3.08;0.82;;;16.40;83.70;;;;;;5066172;28;20028;-77
2022/10/03 02:35:18;;;;;;;3.05;0.90;;;16.40;83.60;;;;;;5006614;28;20490;-76
2022/10/03 02:37:47;;;;;;;2.20;0.75;;;16.40;83.50;;;;;;5066459;28;20029;-76
2022/10/03 02:40:55;;;;;;;2.97;1.00;;;16.50;83.40;;;;;;5048484;28;20032;-76
2022/10/03 02:43:41;;;;;;;2.63;0.77;;;16.40;83.30;;;;;;4960612;28;20210;-78
2022/10/03 02:46:41;;;;;;;3.65;1.13;;;16.50;83.50;;;;;;5060198;28;20024;-76
2022/10/03 02:49:06;;;;;;;;;;;16.40;83.50;;;;;;5055918;28;20023;-75
2022/10/03 02:52:03;;;;;;;3.13;1.00;;;16.50;83.80;;;;;;5057743;28;19908;-76
2022/10/03 02:55:06;;;;;;;1.92;0.80;;;16.40;83.80;;;;;;5048524;28;20034;-77
2022/10/03 02:57:59;;;;;;;3.28;0.93;;;16.40;83.80;;;;;;5065995;28;20056;-76
2022/10/03 03:00:35;;;;;;;3.67;1.00;;;16.40;83.80;;;;;;5066428;28;20538;-77
2022/10/03 03:07:11;;;;;;;3.20;1.00;;;16.40;83.90;;;;;;5070710;28;20035;-78
2022/10/03 03:10:04;;;;;;;3.28;0.80;;;16.40;84.00;;;;;;5031132;28;20039;-76
2022/10/03 03:12:58;;;;;;;2.03;0.85;;;16.40;83.90;;;;;;5048360;28;20812;-76
2022/10/03 03:16:01;;;;;;;2.00;0.70;;;16.40;83.90;;;;;;5048420;28;20166;-77
2022/10/03 03:18:38;;;;;;;2.22;0.70;;;16.30;83.90;;;;;;5048164;28;20574;-77
2022/10/03 03:21:07;;;;;;;3.05;0.93;;;16.40;84.10;;;;;;5047388;28;20056;-77
2022/10/03 03:23:45;;;;;;;2.08;0.90;;;16.30;84.00;;;;;;5048105;28;20052;-76
2022/10/03 03:26:44;;;;;;;2.70;1.00;;;16.30;83.90;;;;;;5066089;28;20039;-76
2022/10/03 03:29:31;;;;;;;2.92;0.93;;;16.30;83.90;;;;;;5066025;28;20127;-76
2022/10/03 03:32:30;;;;;;;4.63;0.90;;;16.40;83.90;;;;;;5047387;28;20516;-77
2022/10/03 03:35:02;;;;;;;1.73;0.83;;;16.30;83.80;;;;;;5047372;28;20559;-77
2022/10/03 03:37:27;;;;;;;2.42;1.10;;;16.40;83.70;;;;;;5047893;28;20505;-76
2022/10/03 03:40:17;;;;;;;4.22;0.82;;;16.40;83.70;;;;;;5065974;28;20040;-76
2022/10/03 03:43:12;;;;;;;2.40;0.68;;;16.40;83.60;;;;;;5047189;28;20036;-76
2022/10/03 03:45:59;;;;;;;2.50;0.93;;;16.40;83.40;;;;;;5036594;28;20122;-78
2022/10/03 03:48:42;;;;;;;2.92;0.98;;;16.40;83.30;;;;;;5065379;28;20584;-76
2022/10/03 03:51:13;;;;;;;3.03;1.00;;;16.40;83.30;;;;;;5047224;28;20067;-76
2022/10/03 03:53:46;;;;;;;2.58;0.80;;;16.40;83.50;;;;;;5065669;28;20024;-76
2022/10/03 03:56:36;;;;;;;3.80;1.10;;;16.40;83.70;;;;;;5065563;28;20036;-76
2022/10/03 03:59:20;;;;;;;;;;;16.40;83.70;;;;;;5065960;28;20033;-77
2022/10/03 04:02:07;;;;;;;2.50;1.13;;;16.40;83.80;;;;;;5065629;28;19912;-76
2022/10/03 04:04:45;;;;;;;2.38;0.80;;;16.30;83.80;;;;;;5065847;28;20107;-76
2022/10/03 04:07:39;;;;;;;2.20;0.90;;;16.30;83.90;;;;;;5047448;28;20024;-77
2022/10/03 04:10:24;;;;;;;2.85;1.15;;;16.30;83.80;;;;;;5065194;28;20095;-75
2022/10/03 04:13:27;;;;;;;2.00;0.93;;;16.30;83.90;;;;;;5064741;28;20036;-77
2022/10/03 04:16:14;;;;;;;2.47;0.88;;;16.30;83.90;;;;;;5064524;28;20036;-76
2022/10/03 04:18:58;;;;;;;1.70;0.80;;;16.30;84.00;;;;;;5047454;28;20383;-76
2022/10/03 04:21:42;;;;;;;3.72;0.90;;;16.30;83.90;;;;;;5064688;28;20025;-76
2022/10/03 04:24:32;;;;;;;2.33;1.02;;;16.30;84.00;;;;;;5047158;28;20039;-76
2022/10/03 04:27:25;;;;;;;1.88;0.90;;;16.30;84.00;;;;;;5064760;28;20035;-76
2022/10/03 04:30:28;;;;;;;3.22;1.08;;;16.30;83.90;;;;;;5064903;28;20500;-75
2022/10/03 04:33:31;;;;;;;2.13;0.90;;;16.30;84.00;;;;;;5060648;28;20048;-76
2022/10/03 04:36:27;;;;;;;2.40;0.93;;;16.30;84.00;;;;;;5047153;28;20097;-76
2022/10/03 04:38:58;;;;;;;3.30;1.20;;;16.30;83.90;;;;;;5047507;28;20517;-76
2022/10/03 04:42:00;;;;;;;3.05;0.98;;;16.30;83.80;;;;;;5064894;28;20035;-77
2022/10/03 04:44:45;;;;;;;3.30;1.08;;;16.30;83.70;;;;;;5065046;28;20038;-79
2022/10/03 04:47:27;;;;;;;2.63;0.90;;;16.40;83.70;;;;;;5052952;28;20024;-76
2022/10/03 04:50:11;;;;;;;2.20;0.90;;;16.40;83.60;;;;;;5035369;28;20024;-76
2022/10/03 04:52:39;;;;;;;2.10;0.70;;;16.40;83.40;;;;;;5029052;28;20041;-80
2022/10/03 04:55:23;;;;;;;3.50;1.15;;;16.40;83.50;;;;;;5030901;28;20032;-76
2022/10/03 04:57:59;;;;;;;1.77;0.90;;;16.40;83.60;;;;;;5057434;28;20043;-76
2022/10/03 05:00:43;;;;;;;2.72;1.10;;;16.40;83.60;;;;;;5046526;28;20032;-75
2022/10/03 05:03:25;;;;;;;2.50;0.90;;;16.40;83.80;;;;;;5063614;28;20028;-77
2022/10/03 05:06:16;;;;;;;1.73;1.10;;;16.30;83.80;;;;;;5062007;28;20024;-75
2022/10/03 05:09:06;;;;;;;1.95;0.80;;;16.30;83.80;;;;;;5062361;28;20028;-76
2022/10/03 05:11:44;;;;;;;2.28;0.90;;;16.30;83.90;;;;;;5037432;28;20082;-75
2022/10/03 05:14:19;;;;;;;1.80;0.80;;;16.30;83.90;;;;;;5061603;28;20024;-76
2022/10/03 05:17:02;;;;;;;2.78;1.02;;;16.30;84.00;;;;;;5063556;28;20032;-76
2022/10/03 05:19:32;;;;;;;3.15;0.93;;;16.30;84.00;;;;;;5037590;28;20115;-75
2022/10/03 05:22:13;;;;;;;2.80;1.10;;;16.30;84.00;;;;;;5063523;28;20032;-75
2022/10/03 05:25:10;;;;;;;2.88;0.95;;;16.30;83.90;;;;;;5063819;28;20115;-76
2022/10/03 05:27:46;;;;;;;2.38;1.10;;;16.30;84.00;;;;;;5065227;28;20017;-76
2022/10/03 05:30:23;;;;;;;3.17;1.10;;;16.30;84.00;;;;;;5048245;28;20025;-76
2022/10/03 05:33:00;;;;;;;3.03;1.20;;;16.30;84.00;;;;;;5048093;28;20097;-78
2022/10/03 05:35:35;;;;;;;2.83;0.85;;;16.30;84.00;;;;;;5066620;28;20035;-76
2022/10/03 05:38:09;;;;;;;3.22;1.10;;;16.30;84.00;;;;;;5042411;28;20521;-77
2022/10/03 05:40:38;;;;;;;2.17;0.90;;;16.30;84.00;;;;;;5066948;28;20075;-76
2022/10/03 05:43:34;;;;;;;2.78;1.08;;;16.30;83.90;;;;;;5065412;28;20032;-78
2022/10/03 05:46:05;;;;;;;2.80;1.00;;;16.30;83.90;;;;;;5047959;28;20024;-77
2022/10/03 05:48:45;;;;;;;2.85;0.90;;;16.30;83.80;;;;;;5066616;28;20051;-77
2022/10/03 05:51:23;;;;;;;2.30;0.90;;;16.30;83.70;;;;;;5066753;28;20021;-77
2022/10/03 05:54:24;;;;;;;2.25;0.95;;;16.30;83.60;;;;;;5067577;28;20024;-77
2022/10/03 05:57:10;;;;;;;2.22;1.05;;;16.40;83.50;;;;;;5067349;28;20060;-76
2022/10/03 05:59:42;;;;;;;2.42;1.20;;;16.40;83.40;;;;;;5049533;28;20033;-77
2022/10/03 06:02:41;;;;;;;2.83;0.88;;;16.40;83.50;;;;;;5048438;28;20025;-77
2022/10/03 06:05:14;;;;;;;1.98;0.88;;;16.40;83.60;;;;;;5067059;28;20040;-76
2022/10/03 06:08:09;;;;;;;2.55;1.00;;;16.30;83.60;;;;;;5067427;28;20029;-77
2022/10/03 06:10:51;;;;;;;2.55;1.00;;;16.30;83.60;;;;;;5067186;28;20060;-77
2022/10/03 06:13:38;;;;;;;2.60;0.98;;;16.20;83.70;;;;;;5048971;28;20087;-76
2022/10/03 06:16:30;;;;;;;3.72;1.35;;;16.30;83.80;;;;;;5049160;28;20103;-76
2022/10/03 06:19:09;;;;;;;2.88;1.20;;;16.30;83.70;;;;;;5044681;28;20028;-77
2022/10/03 06:22:23;;;;;;;2.88;1.15;;;16.30;83.80;;;;;;5066595;28;20394;-76
2022/10/03 06:25:16;;;;;;;2.85;1.10;;;16.30;83.80;;;;;;5066850;28;20024;-77
2022/10/03 06:28:20;;;;;;;2.45;1.10;;;16.30;83.90;;;;;;5049574;28;20081;-78
2022/10/03 06:30:54;;;;;;;2.85;1.20;;;16.30;83.70;;;;;;5066678;28;20029;-77
2022/10/03 06:34:08;;;;;;;2.88;1.10;;;16.30;83.90;;;;;;5066313;28;20059;-77
2022/10/03 06:36:55;;;;;;;4.57;1.20;;;16.30;83.80;;;;;;5014258;28;20052;-79
2022/10/03 06:39:51;;;;;;;3.72;1.00;;;16.30;83.90;;;;;;5048570;28;20046;-76
2022/10/03 06:42:40;;;;;;;2.60;1.20;;;16.30;83.90;;;;;;5066468;28;20056;-77
2022/10/03 06:45:41;;;;;;;3.03;1.08;;;16.30;83.90;;;;;;5066280;28;20028;-77
2022/10/03 06:48:46;;;;;;;2.17;1.13;;;16.30;83.90;;;;;;5066237;28;20028;-76
2022/10/03 06:51:30;;;;;;;3.15;1.17;;;16.30;83.80;;;;;;5066078;28;20020;-77
2022/10/03 06:54:00;;;;;;;1.90;1.00;;;16.40;83.70;;;;;;5049012;28;20047;-76
2022/10/03 06:57:03;;;;;;;3.05;1.17;;;16.30;83.60;;;;;;5048511;28;20645;-78
2022/10/03 07:00:00;;;;;;;2.17;1.00;;;16.40;83.50;;;;;;5047992;28;20035;-77
2022/10/03 07:03:01;;;;;;;2.05;1.00;;;16.40;83.40;;;;;;5047310;28;20111;-77
2022/10/03 07:05:46;;;;;;;2.78;1.08;;;16.40;83.30;;;;;;5065801;28;20048;-76
2022/10/03 07:08:39;;;;;;;1.90;0.93;;;16.40;83.20;;;;;;5066068;28;20025;-77
2022/10/03 07:11:09;;;;;;;2.25;1.20;;;16.40;83.20;;;;;;5048234;28;20490;-77
2022/10/03 07:14:05;;;;;;;3.65;1.55;;;16.40;83.20;;;;;;5066187;28;20789;-77
2022/10/03 07:17:33;;;;;;;2.90;0.93;;;16.40;83.20;;;;;;5047668;28;20025;-77
2022/10/03 07:20:36;;;;;;;3.08;1.10;;;16.50;83.30;;;;;;4949023;28;20598;-81
2022/10/03 07:23:10;;;;;;;3.25;1.10;;;16.50;83.20;;;;;;5065817;28;20056;-77
2022/10/03 07:26:33;;;;;;;2.70;1.20;;;16.50;83.20;;;;;;5048523;28;20031;-76
2022/10/03 07:29:07;;;;;;;2.58;1.13;;;16.50;83.20;;;;;;4951074;28;20022;-77
2022/10/03 07:31:56;;;;;;;1.70;1.02;;;16.40;83.20;;;;;;4962978;28;20027;-78
2022/10/03 07:34:55;;;;;;;2.72;1.13;;;16.40;83.20;;;;;;5032483;28;20036;-79
2022/10/03 07:40:55;;;;;;;2.90;1.20;;;16.40;83.20;;;;;;5069004;28;20358;-80
2022/10/03 07:43:58;;;;;;;2.63;1.17;;;16.50;83.30;;;;;;5067260;28;20035;-78
2022/10/03 07:46:49;;;;;;;3.30;1.13;;;16.40;83.20;;;;;;5065872;28;20031;-77
2022/10/03 07:49:39;;;;;;;2.47;1.10;;;16.50;83.40;;;;;;5066925;28;20028;-78
2022/10/03 07:52:16;;;;;;;3.13;1.38;;;16.50;83.20;;;;;;5048967;28;20035;-77
2022/10/03 07:55:01;;;;;;;2.63;1.15;;;16.50;83.30;;;;;;5067282;28;20025;-76
2022/10/03 07:58:06;;;;;;;2.53;1.10;;;16.50;83.20;;;;;;5049442;28;20031;-77
2022/10/03 08:00:51;;;;;;;2.90;1.30;;;16.50;83.10;;;;;;5066714;28;20085;-77
2022/10/03 08:03:54;;;;;;;2.80;1.20;;;16.50;83.10;;;;;;5046864;28;20119;-76
2022/10/03 08:06:29;;;;;;;2.42;1.17;;;16.60;83.00;;;;;;5048373;28;20658;-77
2022/10/03 08:08:57;;;;;;;1.83;1.10;;;16.60;82.90;;;;;;5067372;28;20056;-78
2022/10/03 08:11:49;;;;;;;2.65;1.10;;;16.60;82.80;;;;;;5048409;28;20068;-79
2022/10/03 08:14:20;;;;;;;3.33;1.23;;;16.60;82.70;;;;;;5065251;28;20029;-77
2022/10/03 08:17:07;;;;;;;2.63;1.10;;;16.60;82.60;;;;;;5048208;28;20178;-77
2022/10/03 08:20:02;;;;;;;2.00;1.00;;;16.60;82.50;;;;;;5066539;28;20536;-76
2022/10/03 08:22:55;;;;;;;2.17;1.05;;;16.70;82.50;;;;;;5041911;28;20060;-77
2022/10/03 08:25:49;;;;;;;2.35;1.13;;;16.70;82.50;;;;;;5038088;28;20084;-77
2022/10/03 08:28:49;;;;;;;1.55;0.98;;;16.70;82.30;;;;;;5046152;28;20854;-77
2022/10/03 08:31:46;;;;;;;1.98;1.05;;;16.80;82.00;;;;;;5045864;28;20096;-77
2022/10/03 08:34:23;;;;;;;3.17;1.20;;;16.90;81.70;;;;;;5059839;28;20496;-77
2022/10/03 08:37:13;;;;;;;2.35;1.17;;;17.00;81.30;;;;;;5065810;28;20033;-78
2022/10/03 08:40:20;;;;;;;2.58;1.30;;;17.10;81.00;;;;;;5048299;28;20099;-77
2022/10/03 08:43:11;;;;;;;1.98;1.10;;;17.20;80.70;;;;;;5034062;28;20036;-79
2022/10/03 08:46:09;;;;;;;2.33;1.15;;;17.20;80.40;;;;;;5009393;28;20058;-79
2022/10/03 08:48:44;;;;;;;2.92;1.30;;;17.20;80.40;;;;;;5047736;28;20516;-77
2022/10/03 08:51:44;;;;;;;1.80;1.00;;;17.20;80.50;;;;;;5046869;28;20482;-77
2022/10/03 08:54:46;;;;;;;2.60;0.98;;;17.10;80.60;;;;;;5065139;28;20029;-79
2022/10/03 08:57:17;;;;;;;2.10;1.17;;;17.10;80.80;;;;;;5065356;28;20029;-77
2022/10/03 09:00:06;;;;;;;3.03;1.40;;;17.10;80.90;;;;;;5046688;28;20063;-77
2022/10/03 09:03:09;;;;;;;2.13;1.10;;;17.10;81.00;;;;;;5066520;28;20028;-76
2022/10/03 09:05:49;;;;;;;2.88;1.15;;;17.10;80.90;;;;;;5050902;28;20588;-78
2022/10/03 09:08:59;;;;;;;2.67;1.20;;;17.10;80.90;;;;;;5068994;28;20064;-76
2022/10/03 09:11:27;;;;;;;2.22;1.00;;;17.10;80.80;;;;;;5046006;28;20590;-76
2022/10/03 09:14:26;;;;;;;1.85;1.15;;;17.20;80.70;;;;;;5046940;28;20029;-78
2022/10/03 09:17:21;;;;;;;1.50;0.90;;;17.30;80.40;;;;;;5048719;28;20439;-77
2022/10/03 09:20:10;;;;;;;3.38;1.20;;;17.40;80.60;;;;;;5031434;28;20025;-76
2022/10/03 09:22:56;;;;;;;2.40;1.10;;;17.50;79.80;;;;;;5048265;28;20443;-77
2022/10/03 09:25:56;;;;;;;5.60;1.33;;;17.50;79.50;;;;;;5029802;28;20132;-77
2022/10/03 09:28:47;;;;;;;2.72;1.15;;;17.60;79.40;;;;;;5048216;28;20029;-77
2022/10/03 09:31:24;;;;;;;3.47;1.20;;;17.60;79.30;;;;;;5029440;28;20025;-79
2022/10/03 09:34:20;;;;;;;3.75;1.20;;;17.60;79.20;;;;;;5030017;28;20040;-77
2022/10/03 09:37:23;;;;;;;3.83;1.10;;;17.60;79.20;;;;;;5048230;28;20025;-77
2022/10/03 09:40:14;;;;;;;2.97;1.23;;;17.70;79.10;;;;;;5030018;28;20032;-77
2022/10/03 09:42:58;;;;;;;;;;;17.70;79.10;;;;;;5029875;28;20212;-77
2022/10/03 09:45:41;;;;;;;3.80;1.10;;;17.70;79.00;;;;;;5029684;28;19908;-77
2022/10/03 09:49:08;;;;;;;2.25;1.00;;;17.80;79.00;;;;;;5047602;28;20040;-77
2022/10/03 09:51:51;;;;;;;1.70;1.02;;;17.80;78.90;;;;;;4946699;28;20135;-77
2022/10/03 09:54:42;;;;;;;2.05;1.20;;;17.80;79.30;;;;;;4946774;28;20091;-77
2022/10/03 09:57:48;;;;;;;2.80;1.15;;;17.80;78.70;;;;;;5037088;28;20029;-77
2022/10/03 10:00:19;;;;;;;1.67;0.90;;;17.90;78.70;;;;;;5031075;28;20517;-77
2022/10/03 10:03:30;;;;;;;2.05;1.00;;;17.90;79.20;;;;;;5048590;28;20033;-78
2022/10/03 10:06:17;;;;;;;2.90;0.98;;;17.90;78.60;;;;;;5048290;28;20040;-79
2022/10/03 10:09:19;;;;;;;1.75;0.95;;;17.90;78.60;;;;;;5048834;28;20673;-77
2022/10/03 10:12:10;;;;;;;2.58;1.10;;;17.90;78.60;;;;;;5030571;28;20098;-77
2022/10/03 10:14:35;;;;;;;;;;;17.90;78.50;;;;;;5031267;28;20049;-77
2022/10/03 10:17:09;;;;;;;1.65;1.08;;;18.00;78.60;;;;;;5048982;28;19951;-77
2022/10/03 10:20:06;;;;;;;3.42;1.02;;;18.00;78.40;;;;;;5048084;28;20518;-80
2022/10/03 10:22:39;;;;;;;2.47;1.20;;;18.00;78.40;;;;;;5038310;28;20036;-77
2022/10/03 10:25:19;;;;;;;1.95;1.00;;;18.00;78.40;;;;;;5029164;28;20041;-77
2022/10/03 10:28:01;;;;;;;2.53;0.90;;;18.00;78.40;;;;;;5048000;28;20266;-77
2022/10/03 10:30:42;;;;;;;2.20;1.02;;;18.00;78.50;;;;;;5049771;28;20035;-78
2022/10/03 10:33:27;;;;;;;2.45;1.00;;;17.90;78.60;;;;;;5048126;28;20056;-77
2022/10/03 10:36:23;;;;;;;1.42;0.95;;;17.90;78.70;;;;;;5029206;28;20487;-76
2022/10/03 10:39:21;;;;;;;2.03;0.93;;;17.90;78.70;;;;;;5048892;28;20033;-78
2022/10/03 10:42:06;;;;;;;2.78;1.30;;;17.90;79.00;;;;;;5047175;28;20525;-77
2022/10/03 10:44:59;;;;;;;3.08;1.10;;;17.90;79.00;;;;;;5046929;28;20037;-77
2022/10/03 10:48:07;;;;;;;1.77;1.10;;;17.90;79.00;;;;;;5029351;28;20029;-78
2022/10/03 10:51:18;;;;;;;1.83;1.00;;;17.90;79.10;;;;;;5032679;28;20032;-78
2022/10/03 10:54:08;;;;;;;2.58;1.00;;;17.80;79.40;;;;;;5047133;28;20028;-77
2022/10/03 10:56:48;;;;;;;3.33;1.20;;;17.80;79.30;;;;;;5029624;28;20128;-77
2022/10/03 10:59:51;;;;;;;2.00;1.10;;;17.80;79.40;;;;;;5048935;28;20120;-78
2022/10/03 11:02:46;;;;;;;2.40;1.20;;;17.90;79.30;;;;;;5029540;28;20039;-77
2022/10/03 11:05:45;;;;;;;2.47;1.17;;;17.90;79.20;;;;;;5030153;28;20124;-77
2022/10/03 11:08:30;;;;;;;2.60;1.10;;;17.90;79.20;;;;;;5030889;28;20700;-78
2022/10/03 11:11:41;;;;;;;2.38;1.02;;;17.90;79.10;;;;;;5059944;28;20083;-77
2022/10/03 11:14:51;;;;;;;2.05;1.10;;;17.90;79.10;;;;;;5064078;28;20074;-77
2022/10/03 11:17:46;;;;;;;2.33;1.00;;;18.00;79.10;;;;;;5063659;28;20036;-78
2022/10/03 11:20:58;;;;;;;1.85;1.00;;;18.00;78.90;;;;;;5065208;28;20573;-77
2022/10/03 11:23:50;;;;;;;1.92;1.10;;;18.10;78.70;;;;;;5067608;28;20083;-78
2022/10/03 11:26:38;;;;;;;2.00;0.90;;;18.00;78.90;;;;;;5067434;28;20585;-77
2022/10/03 11:29:39;;;;;;;2.33;1.00;;;17.90;79.10;;;;;;5048518;28;20029;-77
2022/10/03 11:32:36;;;;;;;2.22;1.10;;;17.90;79.30;;;;;;5066649;28;20486;-77
2022/10/03 11:35:28;;;;;;;1.50;1.00;;;17.90;79.50;;;;;;5066953;28;20478;-78
2022/10/03 11:38:10;;;;;;;2.40;0.98;;;17.80;79.40;;;;;;5065549;28;20490;-77
2022/10/03 11:40:59;;;;;;;2.42;1.00;;;17.80;79.50;;;;;;5066248;28;20489;-77
2022/10/03 11:43:58;;;;;;;3.15;1.10;;;17.80;79.50;;;;;;5066539;28;20041;-78
2022/10/03 11:46:58;;;;;;;2.03;0.90;;;17.80;79.70;;;;;;5066151;28;20304;-78
2022/10/03 11:49:54;;;;;;;1.73;1.00;;;17.80;79.80;;;;;;5061277;28;20032;-77
2022/10/03 11:52:57;;;;;;;2.58;1.17;;;17.70;80.00;;;;;;5065479;28;20021;-77
2022/10/03 11:55:40;;;;;;;2.38;1.10;;;17.70;80.20;;;;;;5065268;28;20512;-77
2022/10/03 11:58:14;;;;;;;2.13;0.90;;;17.70;80.30;;;;;;5047510;28;20052;-78
2022/10/03 12:00:43;;;;;;;1.95;1.23;;;17.60;80.30;;;;;;5047336;28;20038;-78
2022/10/03 12:03:26;;;;;;;1.52;0.90;;;17.60;80.40;;;;;;5065379;28;20036;-77
2022/10/03 12:09:07;;;;;;;1.98;0.95;;;17.50;80.70;;;;;;5065380;28;20047;-77
2022/10/03 12:11:41;;;;;;;1.88;1.05;;;17.50;80.90;;;;;;5065154;28;20024;-77
2022/10/03 12:14:25;;;;;;;2.95;1.15;;;17.50;80.90;;;;;;5047961;28;20095;-77
2022/10/03 12:17:14;;;;;;;1.83;1.02;;;17.50;80.90;;;;;;5047864;28;20509;-77
2022/10/03 12:20:03;;;;;;;2.50;1.20;;;17.50;80.90;;;;;;5046636;28;20032;-77
2022/10/03 12:22:52;;;;;;;1.77;0.80;;;17.50;80.70;;;;;;5064259;28;20025;-77
2022/10/03 12:25:29;;;;;;;2.65;1.08;;;17.50;80.60;;;;;;5047265;28;20028;-77
2022/10/03 12:28:20;;;;;;;1.63;1.00;;;17.50;80.60;;;;;;5047232;28;20035;-77
2022/10/03 12:30:54;;;;;;;;;;;17.50;80.60;;;;;;5063707;28;20027;-77
2022/10/03 12:33:36;;;;;;;1.92;1.10;;;17.50;80.80;;;;;;5065000;28;19947;-77
2022/10/03 12:36:04;;;;;;;1.67;1.08;;;17.50;80.80;;;;;;5066582;28;20033;-76
2022/10/03 12:38:37;;;;;;;4.00;1.00;;;17.40;80.90;;;;;;5050807;28;20039;-76
2022/10/03 12:41:24;;;;;;;1.75;1.00;;;17.40;80.90;;;;;;5068562;28;20272;-76
2022/10/03 12:44:08;;;;;;;2.08;0.98;;;17.40;81.00;;;;;;5069592;28;20060;-77
2022/10/03 12:47:06;;;;;;;1.92;1.00;;;17.40;81.00;;;;;;5067647;28;20047;-78
2022/10/03 12:49:59;;;;;;;2.08;0.90;;;17.40;81.10;;;;;;5050468;28;20569;-77
2022/10/03 12:52:32;;;;;;;1.80;0.95;;;17.40;81.20;;;;;;5068942;28;20075;-77
2022/10/03 12:55:22;;;;;;;1.70;0.80;;;17.40;81.30;;;;;;5051539;28;20127;-77
2022/10/03 12:58:22;;;;;;;3.03;1.08;;;17.30;81.20;;;;;;5069221;28;20025;-78
2022/10/03 13:00:57;;;;;;;;;;;17.30;81.40;;;;;;5062515;28;20032;-77
2022/10/03 13:03:31;;;;;;;2.28;1.00;;;17.30;81.50;;;;;;5046764;28;20772;-77
2022/10/03 13:06:19;;;;;;;1.80;0.95;;;17.30;81.50;;;;;;5045028;28;20024;-77
2022/10/03 13:09:20;;;;;;;3.90;1.42;;;17.30;81.40;;;;;;5050795;28;20127;-80
2022/10/03 13:12:12;;;;;;;3.83;1.20;;;17.30;81.40;;;;;;5068705;28;20505;-77
2022/10/03 13:15:22;;;;;;;3.22;1.08;;;17.50;81.50;;;;;;5067535;28;20024;-79
2022/10/03 13:17:59;;;;;;;2.22;1.10;;;17.30;81.10;;;;;;5068616;28;20510;-77
2022/10/03 13:20:31;;;;;;;2.63;1.10;;;17.40;81.10;;;;;;5068666;28;20037;-77
2022/10/03 13:22:59;;;;;;;5.38;1.42;;;17.40;81.00;;;;;;5065816;28;20453;-78
2022/10/03 13:25:40;;;;;;;2.95;1.10;;;17.40;80.90;;;;;;5053760;28;20050;-79
2022/10/03 13:28:38;;;;;;;4.35;1.08;;;17.40;80.90;;;;;;5072648;28;20104;-79
2022/10/03 13:31:09;;;;;;;1.67;0.93;;;17.40;80.80;;;;;;5043779;28;20046;-78
2022/10/03 13:33:41;;;;;;;2.20;1.10;;;17.40;80.80;;;;;;5072730;28;20504;-78
2022/10/03 13:36:17;;;;;;;2.65;0.93;;;17.40;80.90;;;;;;5053687;28;20043;-78
2022/10/03 13:38:54;;;;;;;3.78;0.80;;;17.40;81.00;;;;;;5054294;28;20024;-78
2022/10/03 13:41:31;;;;;;;2.85;1.05;;;17.40;81.10;;;;;;5053477;28;20102;-78
2022/10/03 13:44:08;;;;;;;3.88;1.13;;;17.30;81.10;;;;;;5050290;28;20113;-79
2022/10/03 13:46:52;;;;;;;2.08;0.88;;;17.30;81.30;;;;;;5070533;28;20236;-78
2022/10/03 13:49:35;;;;;;;2.05;1.05;;;17.30;81.30;;;;;;5071590;28;20726;-78
2022/10/03 13:52:34;;;;;;;2.72;0.90;;;17.30;81.40;;;;;;5070031;28;20028;-77
2022/10/03 13:55:17;;;;;;;2.13;1.00;;;17.30;81.50;;;;;;5051252;28;20318;-77
2022/10/03 13:58:22;;;;;;;4.22;1.23;;;17.30;81.60;;;;;;5047048;28;20041;-80
2022/10/03 14:00:47;;;;;;;2.17;1.10;;;17.20;81.60;;;;;;5061768;28;20054;-79
2022/10/03 14:03:20;;;;;;;3.40;1.00;;;17.20;81.60;;;;;;5070685;28;20485;-78
2022/10/03 14:06:19;;;;;;;1.77;0.90;;;17.20;81.70;;;;;;5053080;28;20032;-78
2022/10/03 14:09:09;;;;;;;2.75;0.90;;;17.20;82.30;;;;;;5025513;28;20039;-77
2022/10/03 14:11:49;;;;;;;2.33;1.10;;;17.20;81.70;;;;;;5068096;28;20032;-78
2022/10/03 14:14:36;;;;;;;1.10;0.80;;;17.20;82.40;;;;;;5048735;28;20035;-79
2022/10/03 14:17:10;;;;;;;3.30;1.45;;;17.20;82.00;;;;;;5050067;28;20148;-78
2022/10/03 14:20:00;;;;;;;1.85;0.85;;;17.10;81.90;;;;;;5068417;28;20043;-77
2022/10/03 14:22:56;;;;;;;1.60;0.90;;;17.10;82.00;;;;;;5068260;28;20080;-77
2022/10/03 14:25:27;;;;;;;7.68;1.38;;;17.10;81.90;;;;;;5067509;28;20032;-77
2022/10/03 14:28:12;;;;;;;4.93;1.67;;;17.10;81.80;;;;;;5067972;28;20046;-77
2022/10/03 14:30:58;;;;;;;1.58;0.95;;;17.20;81.50;;;;;;5066579;28;20386;-77
2022/10/03 14:33:42;;;;;;;4.38;1.20;;;17.20;81.50;;;;;;5048997;28;20513;-76
2022/10/03 14:36:15;;;;;;;1.70;0.90;;;17.20;81.40;;;;;;5049405;28;20089;-78
2022/10/03 14:39:01;;;;;;;3.33;1.05;;;17.10;81.50;;;;;;5049661;28;20394;-77
2022/10/03 14:41:47;;;;;;;1.90;1.00;;;17.10;81.60;;;;;;5066312;28;20036;-77
2022/10/03 14:44:21;;;;;;;3.92;1.20;;;17.10;81.70;;;;;;5050038;28;20040;-77